sensor_id;sensor_type;location;lat;lon;timestamp;P1;durP1;ratioP1;P2;durP2;ratioP2
23310;SDS011;11828;51.508;18.118;2022-10-16T00:01:24;217.80;;;87.15;;
23310;SDS011;11828;51.508;18.118;2022-10-16T00:03:54;214.85;;;87.65;;
23310;SDS011;11828;51.508;18.118;2022-10-16T00:06:22;213.38;;;86.35;;
23310;SDS011;11828;51.508;18.118;2022-10-16T00:08:49;216.00;;;87.43;;
23310;SDS011;11828;51.508;18.118;2022-10-16T00:13:46;215.15;;;85.93;;
23310;SDS011;11828;51.508;18.118;2022-10-16T00:16:14;213.27;;;86.22;;
23310;SDS011;11828;51.508;18.118;2022-10-16T00:18:42;211.52;;;87.80;;
23310;SDS011;11828;51.508;18.118;2022-10-16T00:21:09;215.10;;;88.43;;
23310;SDS011;11828;51.508;18.118;2022-10-16T00:23:38;214.68;;;87.38;;
23310;SDS011;11828;51.508;18.118;2022-10-16T00:26:06;215.45;;;86.63;;
23310;SDS011;11828;51.508;18.118;2022-10-16T00:28:36;212.75;;;86.43;;
23310;SDS011;11828;51.508;18.118;2022-10-16T00:31:03;215.77;;;88.05;;
23310;SDS011;11828;51.508;18.118;2022-10-16T00:33:32;213.25;;;88.70;;
23310;SDS011;11828;51.508;18.118;2022-10-16T00:35:59;212.63;;;86.97;;
23310;SDS011;11828;51.508;18.118;2022-10-16T00:38:26;213.15;;;88.13;;
23310;SDS011;11828;51.508;18.118;2022-10-16T00:40:52;213.02;;;86.65;;
23310;SDS011;11828;51.508;18.118;2022-10-16T00:46:39;214.10;;;88.78;;
23310;SDS011;11828;51.508;18.118;2022-10-16T00:49:09;215.00;;;86.55;;
23310;SDS011;11828;51.508;18.118;2022-10-16T00:51:42;213.32;;;88.40;;
23310;SDS011;11828;51.508;18.118;2022-10-16T00:54:12;210.40;;;86.50;;
23310;SDS011;11828;51.508;18.118;2022-10-16T00:56:42;215.18;;;88.30;;
23310;SDS011;11828;51.508;18.118;2022-10-16T00:59:12;218.35;;;90.70;;
23310;SDS011;11828;51.508;18.118;2022-10-16T01:01:44;213.98;;;87.90;;
23310;SDS011;11828;51.508;18.118;2022-10-16T01:04:10;231.73;;;88.57;;
23310;SDS011;11828;51.508;18.118;2022-10-16T01:06:40;223.60;;;90.22;;
23310;SDS011;11828;51.508;18.118;2022-10-16T01:09:22;217.02;;;87.03;;
23310;SDS011;11828;51.508;18.118;2022-10-16T01:12:10;213.70;;;88.93;;
23310;SDS011;11828;51.508;18.118;2022-10-16T01:18:05;217.85;;;89.18;;
23310;SDS011;11828;51.508;18.118;2022-10-16T01:20:49;215.43;;;86.32;;
23310;SDS011;11828;51.508;18.118;2022-10-16T01:29:28;213.30;;;87.47;;
23310;SDS011;11828;51.508;18.118;2022-10-16T01:32:34;210.93;;;87.70;;
23310;SDS011;11828;51.508;18.118;2022-10-16T01:35:14;228.95;;;90.10;;
23310;SDS011;11828;51.508;18.118;2022-10-16T01:38:30;209.27;;;85.68;;
23310;SDS011;11828;51.508;18.118;2022-10-16T01:41:49;210.07;;;85.75;;
23310;SDS011;11828;51.508;18.118;2022-10-16T01:44:00;212.75;;;88.97;;
23310;SDS011;11828;51.508;18.118;2022-10-16T01:46:32;210.02;;;84.97;;
23310;SDS011;11828;51.508;18.118;2022-10-16T01:49:01;212.75;;;87.68;;
23310;SDS011;11828;51.508;18.118;2022-10-16T01:51:29;217.30;;;86.65;;
23310;SDS011;11828;51.508;18.118;2022-10-16T01:53:56;214.38;;;87.70;;
23310;SDS011;11828;51.508;18.118;2022-10-16T01:56:25;213.23;;;86.13;;
23310;SDS011;11828;51.508;18.118;2022-10-16T01:59:12;218.77;;;89.05;;
23310;SDS011;11828;51.508;18.118;2022-10-16T02:01:43;211.85;;;86.38;;
23310;SDS011;11828;51.508;18.118;2022-10-16T02:04:17;200.82;;;82.97;;
23310;SDS011;11828;51.508;18.118;2022-10-16T02:07:00;207.32;;;83.78;;
23310;SDS011;11828;51.508;18.118;2022-10-16T02:09:26;207.30;;;85.35;;
23310;SDS011;11828;51.508;18.118;2022-10-16T02:11:53;210.50;;;85.70;;
23310;SDS011;11828;51.508;18.118;2022-10-16T02:14:22;210.82;;;84.72;;
23310;SDS011;11828;51.508;18.118;2022-10-16T02:16:49;208.57;;;85.63;;
23310;SDS011;11828;51.508;18.118;2022-10-16T02:19:16;208.93;;;86.43;;
23310;SDS011;11828;51.508;18.118;2022-10-16T02:21:54;210.02;;;85.88;;
23310;SDS011;11828;51.508;18.118;2022-10-16T02:27:08;216.13;;;91.70;;
23310;SDS011;11828;51.508;18.118;2022-10-16T02:29:45;219.90;;;91.40;;
23310;SDS011;11828;51.508;18.118;2022-10-16T02:32:17;211.68;;;92.05;;
23310;SDS011;11828;51.508;18.118;2022-10-16T02:34:48;213.02;;;89.05;;
23310;SDS011;11828;51.508;18.118;2022-10-16T02:37:16;216.57;;;90.20;;
23310;SDS011;11828;51.508;18.118;2022-10-16T02:39:44;213.25;;;89.80;;
23310;SDS011;11828;51.508;18.118;2022-10-16T02:42:13;211.70;;;86.72;;
23310;SDS011;11828;51.508;18.118;2022-10-16T02:44:40;217.35;;;89.45;;
23310;SDS011;11828;51.508;18.118;2022-10-16T02:47:07;218.27;;;88.93;;
23310;SDS011;11828;51.508;18.118;2022-10-16T02:49:33;216.30;;;89.70;;
23310;SDS011;11828;51.508;18.118;2022-10-16T02:51:59;210.63;;;87.70;;
23310;SDS011;11828;51.508;18.118;2022-10-16T02:54:25;215.15;;;86.43;;
23310;SDS011;11828;51.508;18.118;2022-10-16T02:56:51;216.23;;;91.18;;
23310;SDS011;11828;51.508;18.118;2022-10-16T02:59:17;215.85;;;90.05;;
23310;SDS011;11828;51.508;18.118;2022-10-16T03:01:43;219.60;;;90.70;;
23310;SDS011;11828;51.508;18.118;2022-10-16T03:04:09;217.82;;;90.45;;
23310;SDS011;11828;51.508;18.118;2022-10-16T03:06:35;207.85;;;89.40;;
23310;SDS011;11828;51.508;18.118;2022-10-16T03:09:01;241.45;;;91.55;;
23310;SDS011;11828;51.508;18.118;2022-10-16T03:11:27;215.95;;;89.95;;
23310;SDS011;11828;51.508;18.118;2022-10-16T03:13:53;232.98;;;89.75;;
23310;SDS011;11828;51.508;18.118;2022-10-16T03:16:19;222.75;;;91.88;;
23310;SDS011;11828;51.508;18.118;2022-10-16T03:18:48;217.98;;;90.88;;
23310;SDS011;11828;51.508;18.118;2022-10-16T03:21:15;221.07;;;90.88;;
23310;SDS011;11828;51.508;18.118;2022-10-16T03:23:42;225.88;;;90.55;;
23310;SDS011;11828;51.508;18.118;2022-10-16T03:26:08;215.65;;;88.68;;
23310;SDS011;11828;51.508;18.118;2022-10-16T03:28:34;236.02;;;91.90;;
23310;SDS011;11828;51.508;18.118;2022-10-16T03:31:00;218.57;;;91.03;;
23310;SDS011;11828;51.508;18.118;2022-10-16T03:33:26;219.50;;;93.63;;
23310;SDS011;11828;51.508;18.118;2022-10-16T03:35:52;222.63;;;93.20;;
23310;SDS011;11828;51.508;18.118;2022-10-16T03:38:20;218.15;;;94.15;;
23310;SDS011;11828;51.508;18.118;2022-10-16T03:40:46;210.05;;;90.05;;
23310;SDS011;11828;51.508;18.118;2022-10-16T03:43:13;219.00;;;92.22;;
23310;SDS011;11828;51.508;18.118;2022-10-16T03:45:39;212.70;;;91.10;;
23310;SDS011;11828;51.508;18.118;2022-10-16T03:48:05;217.10;;;94.97;;
23310;SDS011;11828;51.508;18.118;2022-10-16T03:50:31;236.13;;;94.18;;
23310;SDS011;11828;51.508;18.118;2022-10-16T03:52:57;201.93;;;88.32;;
23310;SDS011;11828;51.508;18.118;2022-10-16T03:55:23;223.32;;;94.82;;
23310;SDS011;11828;51.508;18.118;2022-10-16T03:57:49;222.73;;;93.15;;
23310;SDS011;11828;51.508;18.118;2022-10-16T04:00:15;222.23;;;88.90;;
23310;SDS011;11828;51.508;18.118;2022-10-16T04:02:41;205.50;;;87.47;;
23310;SDS011;11828;51.508;18.118;2022-10-16T04:05:07;207.85;;;88.63;;
23310;SDS011;11828;51.508;18.118;2022-10-16T04:07:34;222.80;;;93.82;;
23310;SDS011;11828;51.508;18.118;2022-10-16T04:10:00;217.98;;;92.78;;
23310;SDS011;11828;51.508;18.118;2022-10-16T04:12:27;215.55;;;87.47;;
23310;SDS011;11828;51.508;18.118;2022-10-16T04:14:53;227.25;;;91.18;;
23310;SDS011;11828;51.508;18.118;2022-10-16T04:17:19;221.93;;;93.13;;
23310;SDS011;11828;51.508;18.118;2022-10-16T04:19:45;228.18;;;94.63;;
23310;SDS011;11828;51.508;18.118;2022-10-16T04:22:11;225.30;;;91.88;;
23310;SDS011;11828;51.508;18.118;2022-10-16T04:24:37;223.80;;;94.55;;
23310;SDS011;11828;51.508;18.118;2022-10-16T04:27:03;226.30;;;93.63;;
23310;SDS011;11828;51.508;18.118;2022-10-16T04:29:30;216.80;;;91.88;;
23310;SDS011;11828;51.508;18.118;2022-10-16T04:31:56;225.98;;;92.15;;
23310;SDS011;11828;51.508;18.118;2022-10-16T04:34:22;220.55;;;92.22;;
23310;SDS011;11828;51.508;18.118;2022-10-16T04:36:48;219.23;;;91.65;;
23310;SDS011;11828;51.508;18.118;2022-10-16T04:39:15;222.85;;;94.35;;
23310;SDS011;11828;51.508;18.118;2022-10-16T04:41:42;225.27;;;94.30;;
23310;SDS011;11828;51.508;18.118;2022-10-16T04:44:07;208.07;;;90.30;;
23310;SDS011;11828;51.508;18.118;2022-10-16T04:46:34;223.38;;;94.53;;
23310;SDS011;11828;51.508;18.118;2022-10-16T04:49:00;221.52;;;96.07;;
23310;SDS011;11828;51.508;18.118;2022-10-16T04:51:26;232.25;;;99.05;;
23310;SDS011;11828;51.508;18.118;2022-10-16T04:53:53;229.52;;;97.00;;
23310;SDS011;11828;51.508;18.118;2022-10-16T04:56:20;228.82;;;98.47;;
23310;SDS011;11828;51.508;18.118;2022-10-16T04:58:46;227.95;;;96.60;;
23310;SDS011;11828;51.508;18.118;2022-10-16T05:01:13;228.60;;;96.00;;
23310;SDS011;11828;51.508;18.118;2022-10-16T05:03:39;230.50;;;96.50;;
23310;SDS011;11828;51.508;18.118;2022-10-16T05:06:07;227.13;;;94.68;;
23310;SDS011;11828;51.508;18.118;2022-10-16T05:08:33;230.95;;;95.22;;
23310;SDS011;11828;51.508;18.118;2022-10-16T05:11:00;239.57;;;97.55;;
23310;SDS011;11828;51.508;18.118;2022-10-16T05:13:26;228.80;;;96.82;;
23310;SDS011;11828;51.508;18.118;2022-10-16T05:15:52;236.65;;;97.88;;
23310;SDS011;11828;51.508;18.118;2022-10-16T05:18:18;237.50;;;98.35;;
23310;SDS011;11828;51.508;18.118;2022-10-16T05:20:44;252.50;;;102.28;;
23310;SDS011;11828;51.508;18.118;2022-10-16T05:23:11;227.70;;;94.80;;
23310;SDS011;11828;51.508;18.118;2022-10-16T05:25:37;224.70;;;94.25;;
23310;SDS011;11828;51.508;18.118;2022-10-16T05:28:03;227.52;;;95.32;;
23310;SDS011;11828;51.508;18.118;2022-10-16T05:30:29;226.98;;;96.45;;
23310;SDS011;11828;51.508;18.118;2022-10-16T05:32:55;231.93;;;95.45;;
23310;SDS011;11828;51.508;18.118;2022-10-16T05:35:21;230.13;;;96.47;;
23310;SDS011;11828;51.508;18.118;2022-10-16T05:37:47;227.82;;;93.30;;
23310;SDS011;11828;51.508;18.118;2022-10-16T05:40:14;202.75;;;91.80;;
23310;SDS011;11828;51.508;18.118;2022-10-16T05:42:41;221.65;;;92.53;;
23310;SDS011;11828;51.508;18.118;2022-10-16T05:45:08;233.15;;;99.60;;
23310;SDS011;11828;51.508;18.118;2022-10-16T05:47:36;228.57;;;98.18;;
23310;SDS011;11828;51.508;18.118;2022-10-16T05:50:03;228.27;;;96.93;;
23310;SDS011;11828;51.508;18.118;2022-10-16T05:52:29;228.75;;;97.15;;
23310;SDS011;11828;51.508;18.118;2022-10-16T05:54:55;224.82;;;94.10;;
23310;SDS011;11828;51.508;18.118;2022-10-16T05:57:21;215.52;;;92.80;;
23310;SDS011;11828;51.508;18.118;2022-10-16T05:59:48;225.52;;;95.72;;
23310;SDS011;11828;51.508;18.118;2022-10-16T06:02:14;224.02;;;93.50;;
23310;SDS011;11828;51.508;18.118;2022-10-16T06:04:41;225.90;;;96.80;;
23310;SDS011;11828;51.508;18.118;2022-10-16T06:07:07;226.10;;;94.15;;
23310;SDS011;11828;51.508;18.118;2022-10-16T06:09:33;225.75;;;93.68;;
23310;SDS011;11828;51.508;18.118;2022-10-16T06:11:59;227.20;;;96.85;;
23310;SDS011;11828;51.508;18.118;2022-10-16T06:14:25;244.20;;;96.93;;
23310;SDS011;11828;51.508;18.118;2022-10-16T06:16:51;226.30;;;94.78;;
23310;SDS011;11828;51.508;18.118;2022-10-16T06:19:18;224.82;;;93.97;;
23310;SDS011;11828;51.508;18.118;2022-10-16T06:21:44;234.00;;;96.05;;
23310;SDS011;11828;51.508;18.118;2022-10-16T06:24:10;228.35;;;94.85;;
23310;SDS011;11828;51.508;18.118;2022-10-16T06:26:36;256.90;;;99.15;;
23310;SDS011;11828;51.508;18.118;2022-10-16T06:29:03;233.90;;;97.05;;
23310;SDS011;11828;51.508;18.118;2022-10-16T06:31:29;233.70;;;94.85;;
23310;SDS011;11828;51.508;18.118;2022-10-16T06:33:58;239.45;;;96.78;;
23310;SDS011;11828;51.508;18.118;2022-10-16T06:36:24;233.35;;;97.28;;
23310;SDS011;11828;51.508;18.118;2022-10-16T06:38:52;228.52;;;93.45;;
23310;SDS011;11828;51.508;18.118;2022-10-16T06:41:19;232.73;;;93.13;;
23310;SDS011;11828;51.508;18.118;2022-10-16T06:43:47;238.02;;;96.63;;
23310;SDS011;11828;51.508;18.118;2022-10-16T06:46:15;209.82;;;95.90;;
23310;SDS011;11828;51.508;18.118;2022-10-16T06:48:43;232.70;;;95.15;;
23310;SDS011;11828;51.508;18.118;2022-10-16T06:51:11;243.00;;;99.05;;
23310;SDS011;11828;51.508;18.118;2022-10-16T06:53:41;253.73;;;100.97;;
23310;SDS011;11828;51.508;18.118;2022-10-16T06:56:16;230.00;;;95.68;;
23310;SDS011;11828;51.508;18.118;2022-10-16T06:58:48;243.18;;;97.07;;
23310;SDS011;11828;51.508;18.118;2022-10-16T07:01:16;234.27;;;95.30;;
23310;SDS011;11828;51.508;18.118;2022-10-16T07:03:44;236.93;;;99.07;;
23310;SDS011;11828;51.508;18.118;2022-10-16T07:06:13;245.93;;;96.63;;
23310;SDS011;11828;51.508;18.118;2022-10-16T07:08:42;232.13;;;96.60;;
23310;SDS011;11828;51.508;18.118;2022-10-16T07:11:11;235.27;;;97.60;;
23310;SDS011;11828;51.508;18.118;2022-10-16T07:13:40;239.32;;;94.10;;
23310;SDS011;11828;51.508;18.118;2022-10-16T07:16:12;236.35;;;93.72;;
23310;SDS011;11828;51.508;18.118;2022-10-16T07:18:42;233.55;;;95.65;;
23310;SDS011;11828;51.508;18.118;2022-10-16T07:21:11;230.30;;;92.38;;
23310;SDS011;11828;51.508;18.118;2022-10-16T07:23:43;230.02;;;94.03;;
23310;SDS011;11828;51.508;18.118;2022-10-16T07:26:09;241.32;;;99.80;;
23310;SDS011;11828;51.508;18.118;2022-10-16T07:28:36;243.40;;;95.43;;
23310;SDS011;11828;51.508;18.118;2022-10-16T07:31:05;231.73;;;96.15;;
23310;SDS011;11828;51.508;18.118;2022-10-16T07:33:36;229.43;;;93.45;;
23310;SDS011;11828;51.508;18.118;2022-10-16T07:36:03;237.45;;;95.78;;
23310;SDS011;11828;51.508;18.118;2022-10-16T07:38:31;239.80;;;97.03;;
23310;SDS011;11828;51.508;18.118;2022-10-16T07:41:04;234.75;;;93.28;;
23310;SDS011;11828;51.508;18.118;2022-10-16T07:43:46;234.57;;;92.32;;
23310;SDS011;11828;51.508;18.118;2022-10-16T07:46:15;225.77;;;91.25;;
23310;SDS011;11828;51.508;18.118;2022-10-16T07:48:42;230.73;;;92.53;;
23310;SDS011;11828;51.508;18.118;2022-10-16T07:51:20;240.30;;;94.65;;
23310;SDS011;11828;51.508;18.118;2022-10-16T07:53:50;230.73;;;93.95;;
23310;SDS011;11828;51.508;18.118;2022-10-16T07:56:17;234.35;;;92.82;;
23310;SDS011;11828;51.508;18.118;2022-10-16T07:58:44;244.50;;;95.38;;
23310;SDS011;11828;51.508;18.118;2022-10-16T08:01:11;232.23;;;94.18;;
23310;SDS011;11828;51.508;18.118;2022-10-16T08:03:44;249.00;;;96.55;;
23310;SDS011;11828;51.508;18.118;2022-10-16T08:06:12;247.63;;;95.45;;
23310;SDS011;11828;51.508;18.118;2022-10-16T08:08:39;248.55;;;100.15;;
23310;SDS011;11828;51.508;18.118;2022-10-16T08:11:05;323.35;;;132.35;;
23310;SDS011;11828;51.508;18.118;2022-10-16T08:13:31;322.17;;;126.50;;
23310;SDS011;11828;51.508;18.118;2022-10-16T08:15:57;413.88;;;151.57;;
23310;SDS011;11828;51.508;18.118;2022-10-16T08:18:24;323.45;;;127.25;;
23310;SDS011;11828;51.508;18.118;2022-10-16T08:20:56;349.48;;;139.45;;
23310;SDS011;11828;51.508;18.118;2022-10-16T08:23:24;312.77;;;126.63;;
23310;SDS011;11828;51.508;18.118;2022-10-16T08:25:51;298.63;;;124.22;;
23310;SDS011;11828;51.508;18.118;2022-10-16T08:28:18;343.17;;;133.70;;
23310;SDS011;11828;51.508;18.118;2022-10-16T08:30:45;297.90;;;116.32;;
23310;SDS011;11828;51.508;18.118;2022-10-16T08:33:11;323.30;;;125.68;;
23310;SDS011;11828;51.508;18.118;2022-10-16T08:35:37;278.23;;;108.40;;
23310;SDS011;11828;51.508;18.118;2022-10-16T08:38:04;272.25;;;107.43;;
23310;SDS011;11828;51.508;18.118;2022-10-16T08:40:31;261.17;;;101.95;;
23310;SDS011;11828;51.508;18.118;2022-10-16T08:45:43;255.07;;;106.72;;
23310;SDS011;11828;51.508;18.118;2022-10-16T08:51:18;248.60;;;98.13;;
23310;SDS011;11828;51.508;18.118;2022-10-16T08:53:51;240.73;;;94.43;;
23310;SDS011;11828;51.508;18.118;2022-10-16T08:56:31;234.20;;;95.32;;
23310;SDS011;11828;51.508;18.118;2022-10-16T08:58:58;264.60;;;95.68;;
23310;SDS011;11828;51.508;18.118;2022-10-16T09:01:29;255.77;;;95.68;;
23310;SDS011;11828;51.508;18.118;2022-10-16T09:07:01;244.95;;;97.40;;
23310;SDS011;11828;51.508;18.118;2022-10-16T09:12:12;253.20;;;96.28;;
23310;SDS011;11828;51.508;18.118;2022-10-16T09:17:47;242.75;;;94.85;;
23310;SDS011;11828;51.508;18.118;2022-10-16T09:20:40;246.40;;;95.18;;
23310;SDS011;11828;51.508;18.118;2022-10-16T09:23:30;203.32;;;89.43;;
23310;SDS011;11828;51.508;18.118;2022-10-16T09:26:00;172.00;;;70.88;;
23310;SDS011;11828;51.508;18.118;2022-10-16T09:28:28;241.18;;;92.30;;
23310;SDS011;11828;51.508;18.118;2022-10-16T09:30:54;240.23;;;92.15;;
23310;SDS011;11828;51.508;18.118;2022-10-16T09:33:21;199.70;;;82.03;;
23310;SDS011;11828;51.508;18.118;2022-10-16T09:35:54;239.48;;;92.95;;
23310;SDS011;11828;51.508;18.118;2022-10-16T09:38:25;246.77;;;92.65;;
23310;SDS011;11828;51.508;18.118;2022-10-16T09:40:58;236.18;;;90.57;;
23310;SDS011;11828;51.508;18.118;2022-10-16T09:43:39;236.38;;;91.47;;
23310;SDS011;11828;51.508;18.118;2022-10-16T09:49:00;236.20;;;90.78;;
23310;SDS011;11828;51.508;18.118;2022-10-16T09:51:29;237.95;;;93.40;;
23310;SDS011;11828;51.508;18.118;2022-10-16T09:56:45;256.27;;;95.75;;
23310;SDS011;11828;51.508;18.118;2022-10-16T09:59:20;238.68;;;93.07;;
23310;SDS011;11828;51.508;18.118;2022-10-16T10:01:55;239.85;;;93.78;;
23310;SDS011;11828;51.508;18.118;2022-10-16T10:04:24;245.15;;;93.60;;
23310;SDS011;11828;51.508;18.118;2022-10-16T10:06:52;236.75;;;90.80;;
23310;SDS011;11828;51.508;18.118;2022-10-16T10:09:31;234.07;;;90.53;;
23310;SDS011;11828;51.508;18.118;2022-10-16T10:12:05;233.13;;;91.65;;
23310;SDS011;11828;51.508;18.118;2022-10-16T10:14:47;258.50;;;95.22;;
23310;SDS011;11828;51.508;18.118;2022-10-16T10:17:21;244.43;;;94.18;;
23310;SDS011;11828;51.508;18.118;2022-10-16T10:19:50;299.30;;;99.55;;
23310;SDS011;11828;51.508;18.118;2022-10-16T10:22:46;233.13;;;91.68;;
23310;SDS011;11828;51.508;18.118;2022-10-16T10:30:41;229.00;;;90.65;;
23310;SDS011;11828;51.508;18.118;2022-10-16T10:33:14;245.82;;;93.07;;
23310;SDS011;11828;51.508;18.118;2022-10-16T10:38:59;243.63;;;89.10;;
23310;SDS011;11828;51.508;18.118;2022-10-16T10:44:53;238.73;;;96.13;;
23310;SDS011;11828;51.508;18.118;2022-10-16T10:50:33;232.13;;;91.13;;
23310;SDS011;11828;51.508;18.118;2022-10-16T10:56:09;235.85;;;91.05;;
23310;SDS011;11828;51.508;18.118;2022-10-16T11:08:00;241.27;;;95.75;;
23310;SDS011;11828;51.508;18.118;2022-10-16T11:10:45;252.93;;;97.78;;
23310;SDS011;11828;51.508;18.118;2022-10-16T11:13:36;242.13;;;95.18;;
23310;SDS011;11828;51.508;18.118;2022-10-16T11:16:17;243.00;;;97.90;;
23310;SDS011;11828;51.508;18.118;2022-10-16T11:19:10;260.90;;;101.82;;
23310;SDS011;11828;51.508;18.118;2022-10-16T11:21:49;260.67;;;105.20;;
23310;SDS011;11828;51.508;18.118;2022-10-16T11:24:42;240.45;;;92.22;;
23310;SDS011;11828;51.508;18.118;2022-10-16T11:27:39;240.07;;;94.80;;
23310;SDS011;11828;51.508;18.118;2022-10-16T11:32:50;256.90;;;104.20;;
23310;SDS011;11828;51.508;18.118;2022-10-16T11:35:37;243.30;;;99.55;;
23310;SDS011;11828;51.508;18.118;2022-10-16T11:46:29;243.10;;;97.85;;
23310;SDS011;11828;51.508;18.118;2022-10-16T11:49:03;279.77;;;111.72;;
23310;SDS011;11828;51.508;18.118;2022-10-16T11:51:42;240.60;;;95.00;;
23310;SDS011;11828;51.508;18.118;2022-10-16T11:54:52;244.23;;;94.47;;
23310;SDS011;11828;51.508;18.118;2022-10-16T11:57:29;298.65;;;123.65;;
23310;SDS011;11828;51.508;18.118;2022-10-16T12:00:10;244.15;;;96.88;;
23310;SDS011;11828;51.508;18.118;2022-10-16T12:02:56;235.40;;;93.70;;
23310;SDS011;11828;51.508;18.118;2022-10-16T12:09:11;227.55;;;92.15;;
23310;SDS011;11828;51.508;18.118;2022-10-16T12:11:46;236.15;;;90.07;;
23310;SDS011;11828;51.508;18.118;2022-10-16T12:16:57;232.90;;;91.35;;
23310;SDS011;11828;51.508;18.118;2022-10-16T12:19:27;231.35;;;94.18;;
23310;SDS011;11828;51.508;18.118;2022-10-16T12:21:56;257.52;;;97.35;;
23310;SDS011;11828;51.508;18.118;2022-10-16T12:27:04;254.05;;;99.47;;
23310;SDS011;11828;51.508;18.118;2022-10-16T12:29:45;305.15;;;112.85;;
23310;SDS011;11828;51.508;18.118;2022-10-16T12:32:23;235.27;;;94.80;;
23310;SDS011;11828;51.508;18.118;2022-10-16T12:34:57;279.60;;;107.82;;
23310;SDS011;11828;51.508;18.118;2022-10-16T12:37:26;236.88;;;95.60;;
23310;SDS011;11828;51.508;18.118;2022-10-16T12:39:56;242.80;;;93.95;;
23310;SDS011;11828;51.508;18.118;2022-10-16T12:44:54;236.32;;;91.75;;
23310;SDS011;11828;51.508;18.118;2022-10-16T12:47:21;237.13;;;92.00;;
23310;SDS011;11828;51.508;18.118;2022-10-16T12:49:57;246.35;;;100.30;;
23310;SDS011;11828;51.508;18.118;2022-10-16T12:54:59;249.18;;;99.60;;
23310;SDS011;11828;51.508;18.118;2022-10-16T13:00:32;252.75;;;96.07;;
23310;SDS011;11828;51.508;18.118;2022-10-16T13:17:16;231.73;;;89.40;;
23310;SDS011;11828;51.508;18.118;2022-10-16T13:23:07;225.10;;;85.88;;
23310;SDS011;11828;51.508;18.118;2022-10-16T13:28:38;236.82;;;86.40;;
23310;SDS011;11828;51.508;18.118;2022-10-16T13:31:04;223.90;;;86.97;;
23310;SDS011;11828;51.508;18.118;2022-10-16T13:33:41;226.80;;;89.53;;
23310;SDS011;11828;51.508;18.118;2022-10-16T13:36:23;223.15;;;87.68;;
23310;SDS011;11828;51.508;18.118;2022-10-16T13:41:42;225.20;;;86.88;;
23310;SDS011;11828;51.508;18.118;2022-10-16T13:44:11;230.57;;;88.18;;
23310;SDS011;11828;51.508;18.118;2022-10-16T13:46:45;226.13;;;89.03;;
23310;SDS011;11828;51.508;18.118;2022-10-16T13:49:13;233.00;;;89.70;;
23310;SDS011;11828;51.508;18.118;2022-10-16T13:51:41;229.38;;;88.88;;
23310;SDS011;11828;51.508;18.118;2022-10-16T13:54:19;230.15;;;91.93;;
23310;SDS011;11828;51.508;18.118;2022-10-16T13:56:45;261.13;;;95.95;;
23310;SDS011;11828;51.508;18.118;2022-10-16T13:59:33;158.35;;;83.70;;
23310;SDS011;11828;51.508;18.118;2022-10-16T14:02:00;180.65;;;82.82;;
23310;SDS011;11828;51.508;18.118;2022-10-16T14:04:41;234.48;;;91.72;;
23310;SDS011;11828;51.508;18.118;2022-10-16T14:07:12;228.07;;;89.65;;
23310;SDS011;11828;51.508;18.118;2022-10-16T14:09:47;230.68;;;91.03;;
23310;SDS011;11828;51.508;18.118;2022-10-16T14:12:15;225.38;;;88.03;;
23310;SDS011;11828;51.508;18.118;2022-10-16T14:14:42;233.80;;;87.57;;
23310;SDS011;11828;51.508;18.118;2022-10-16T14:17:30;224.45;;;86.32;;
23310;SDS011;11828;51.508;18.118;2022-10-16T14:20:00;227.00;;;89.85;;
23310;SDS011;11828;51.508;18.118;2022-10-16T14:25:20;223.10;;;87.00;;
23310;SDS011;11828;51.508;18.118;2022-10-16T14:28:02;233.90;;;89.35;;
23310;SDS011;11828;51.508;18.118;2022-10-16T14:30:31;225.65;;;89.80;;
23310;SDS011;11828;51.508;18.118;2022-10-16T14:33:02;231.88;;;90.13;;
23310;SDS011;11828;51.508;18.118;2022-10-16T14:35:43;224.38;;;88.57;;
23310;SDS011;11828;51.508;18.118;2022-10-16T14:38:18;242.15;;;90.55;;
23310;SDS011;11828;51.508;18.118;2022-10-16T14:40:46;225.30;;;86.82;;
23310;SDS011;11828;51.508;18.118;2022-10-16T14:43:15;227.55;;;87.55;;
23310;SDS011;11828;51.508;18.118;2022-10-16T14:45:55;228.85;;;87.55;;
23310;SDS011;11828;51.508;18.118;2022-10-16T14:48:22;230.32;;;87.35;;
23310;SDS011;11828;51.508;18.118;2022-10-16T14:50:49;233.00;;;91.70;;
23310;SDS011;11828;51.508;18.118;2022-10-16T14:53:15;234.18;;;98.00;;
23310;SDS011;11828;51.508;18.118;2022-10-16T14:55:42;226.00;;;90.78;;
23310;SDS011;11828;51.508;18.118;2022-10-16T14:58:15;226.40;;;89.15;;
23310;SDS011;11828;51.508;18.118;2022-10-16T15:00:47;225.55;;;87.95;;
23310;SDS011;11828;51.508;18.118;2022-10-16T15:03:14;235.93;;;90.18;;
23310;SDS011;11828;51.508;18.118;2022-10-16T15:05:40;234.13;;;88.68;;
23310;SDS011;11828;51.508;18.118;2022-10-16T15:08:06;222.07;;;86.63;;
23310;SDS011;11828;51.508;18.118;2022-10-16T15:10:42;230.30;;;90.88;;
23310;SDS011;11828;51.508;18.118;2022-10-16T15:13:12;219.52;;;87.13;;
23310;SDS011;11828;51.508;18.118;2022-10-16T15:15:43;226.35;;;89.25;;
23310;SDS011;11828;51.508;18.118;2022-10-16T15:18:11;234.48;;;92.50;;
23310;SDS011;11828;51.508;18.118;2022-10-16T15:20:40;229.40;;;89.18;;
23310;SDS011;11828;51.508;18.118;2022-10-16T15:23:19;225.68;;;87.82;;
23310;SDS011;11828;51.508;18.118;2022-10-16T15:25:50;230.48;;;87.40;;
23310;SDS011;11828;51.508;18.118;2022-10-16T15:28:19;221.57;;;86.20;;
23310;SDS011;11828;51.508;18.118;2022-10-16T15:30:48;228.02;;;86.13;;
23310;SDS011;11828;51.508;18.118;2022-10-16T15:33:20;221.70;;;86.00;;
23310;SDS011;11828;51.508;18.118;2022-10-16T15:35:50;224.57;;;85.68;;
23310;SDS011;11828;51.508;18.118;2022-10-16T15:38:18;224.13;;;85.00;;
23310;SDS011;11828;51.508;18.118;2022-10-16T15:40:46;232.02;;;89.43;;
23310;SDS011;11828;51.508;18.118;2022-10-16T15:43:13;229.75;;;87.22;;
23310;SDS011;11828;51.508;18.118;2022-10-16T15:45:39;231.15;;;90.07;;
23310;SDS011;11828;51.508;18.118;2022-10-16T15:48:06;234.43;;;90.15;;
23310;SDS011;11828;51.508;18.118;2022-10-16T15:50:36;247.15;;;96.35;;
23310;SDS011;11828;51.508;18.118;2022-10-16T15:53:03;237.35;;;92.65;;
23310;SDS011;11828;51.508;18.118;2022-10-16T15:55:29;238.52;;;93.07;;
23310;SDS011;11828;51.508;18.118;2022-10-16T15:57:55;229.25;;;89.97;;
23310;SDS011;11828;51.508;18.118;2022-10-16T16:00:21;231.20;;;89.55;;
23310;SDS011;11828;51.508;18.118;2022-10-16T16:02:53;226.07;;;88.68;;
23310;SDS011;11828;51.508;18.118;2022-10-16T16:05:20;233.13;;;91.13;;
23310;SDS011;11828;51.508;18.118;2022-10-16T16:07:47;227.43;;;87.38;;
23310;SDS011;11828;51.508;18.118;2022-10-16T16:10:14;227.68;;;88.65;;
23310;SDS011;11828;51.508;18.118;2022-10-16T16:12:42;230.45;;;87.45;;
23310;SDS011;11828;51.508;18.118;2022-10-16T16:15:08;228.45;;;88.40;;